createdAt,value
2023-12-08T00:02:24.740Z,97559.60
2023-12-08T00:04:51.704Z,97553.80
2023-12-08T00:07:18.302Z,97550.00
2023-12-08T00:09:45.007Z,97540.40
2023-12-08T00:12:11.779Z,97529.40
2023-12-08T00:14:38.439Z,97528.40
2023-12-08T00:17:05.761Z,97535.80
2023-12-08T00:19:32.906Z,97535.40
2023-12-08T00:21:59.706Z,97533.40
2023-12-08T00:24:26.310Z,97527.80
2023-12-08T00:26:52.961Z,97516.80
2023-12-08T00:29:20.605Z,97502.80
2023-12-08T00:31:48.252Z,97487.60
2023-12-08T00:34:15.463Z,97480.00
2023-12-08T00:36:43.008Z,97476.40
2023-12-08T00:39:09.850Z,97478.80
2023-12-08T00:41:36.755Z,97472.80
2023-12-08T00:44:03.696Z,97467.80
2023-12-08T00:46:31.163Z,97461.00
2023-12-08T00:48:57.921Z,97464.80
2023-12-08T00:51:24.719Z,97455.20
2023-12-08T00:53:51.382Z,97447.00
2023-12-08T00:56:19.025Z,97445.00
2023-12-08T00:58:45.675Z,97442.20
2023-12-08T01:01:13.435Z,97436.00
2023-12-08T01:03:40.216Z,97431.80
2023-12-08T01:06:07.347Z,97424.20
2023-12-08T01:08:34.078Z,97426.60
2023-12-08T01:11:00.708Z,97423.60
2023-12-08T01:13:27.310Z,97424.60
2023-12-08T01:15:53.989Z,97430.80
2023-12-08T01:18:20.793Z,97418.80
2023-12-08T01:20:47.589Z,97418.80
2023-12-08T01:23:14.320Z,97412.80
2023-12-08T01:25:41.068Z,97412.40
2023-12-08T01:28:07.731Z,97414.40
2023-12-08T01:30:34.503Z,97411.60
2023-12-08T01:33:01.295Z,97413.40
2023-12-08T01:35:28.605Z,97415.60
2023-12-08T01:37:55.304Z,97416.60
2023-12-08T01:40:22.004Z,97413.80
2023-12-08T01:42:49.352Z,97410.40
2023-12-08T01:45:17.266Z,97407.40
2023-12-08T01:47:45.158Z,97392.20
2023-12-08T01:50:13.566Z,97388.00
2023-12-08T01:52:40.697Z,97392.80
2023-12-08T01:55:08.132Z,97393.00
2023-12-08T01:57:35.344Z,97393.00
2023-12-08T02:00:02.167Z,97391.80
2023-12-08T02:02:35.956Z,97385.40
2023-12-08T02:05:04.115Z,97381.60
2023-12-08T02:07:32.946Z,97389.00
2023-12-08T02:09:59.702Z,97384.20
2023-12-08T02:12:26.336Z,97381.20
2023-12-08T02:14:53.574Z,97380.80
2023-12-08T02:17:27.905Z,97376.20
2023-12-08T02:19:55.798Z,97382.20
2023-12-08T02:22:25.589Z,97382.40
2023-12-08T02:24:52.688Z,97385.80
2023-12-08T02:27:19.855Z,97379.60
2023-12-08T02:29:46.726Z,97376.20
2023-12-08T02:32:32.210Z,97376.40
2023-12-08T02:35:02.794Z,97375.80
2023-12-08T02:37:33.423Z,97375.60
2023-12-08T02:40:01.573Z,97365.40
2023-12-08T02:42:28.609Z,97363.00
2023-12-08T02:44:55.314Z,97355.20
2023-12-08T02:47:22.073Z,97336.80
2023-12-08T02:49:48.815Z,97347.20
2023-12-08T02:52:15.819Z,97341.20
2023-12-08T02:54:42.468Z,97335.20
2023-12-08T02:57:09.184Z,97334.60
2023-12-08T02:59:35.981Z,97329.00
2023-12-08T03:02:02.742Z,97325.00
2023-12-08T03:04:29.496Z,97328.80
2023-12-08T03:06:56.206Z,97330.80
2023-12-08T03:09:22.833Z,97331.40
2023-12-08T03:11:49.467Z,97323.80
2023-12-08T03:14:16.277Z,97310.60
2023-12-08T03:16:42.953Z,97304.40
2023-12-08T03:19:09.620Z,97299.80
2023-12-08T03:21:36.485Z,97294.00
2023-12-08T03:24:03.218Z,97275.80
2023-12-08T03:26:30.108Z,97256.20
2023-12-08T03:28:56.698Z,97236.00
2023-12-08T03:31:26.004Z,97231.60
2023-12-08T03:33:52.846Z,97225.80
2023-12-08T03:36:19.690Z,97225.40
2023-12-08T03:38:46.662Z,97229.00
2023-12-08T03:41:13.303Z,97240.00
2023-12-08T03:43:40.454Z,97254.60
2023-12-08T03:46:07.886Z,97249.20
2023-12-08T03:48:37.857Z,97243.80
2023-12-08T03:51:05.885Z,97236.00
2023-12-08T03:53:33.337Z,97229.00
2023-12-08T03:56:00.242Z,97218.80
2023-12-08T03:58:28.424Z,97212.80
2023-12-08T04:00:55.289Z,97211.40
2023-12-08T04:03:22.305Z,97205.40
2023-12-08T04:05:49.516Z,97207.00
2023-12-08T04:08:16.301Z,97202.00
2023-12-08T04:10:43.173Z,97201.40
2023-12-08T04:13:09.827Z,97199.20
2023-12-08T04:15:36.606Z,97197.80
2023-12-08T04:18:03.438Z,97191.60
2023-12-08T04:20:30.317Z,97191.00
2023-12-08T04:22:56.973Z,97190.80
2023-12-08T04:25:24.010Z,97190.20
2023-12-08T04:27:50.682Z,97182.40
2023-12-08T04:30:17.494Z,97189.80
2023-12-08T04:32:44.343Z,97192.80
2023-12-08T04:35:11.078Z,97185.80
2023-12-08T04:37:37.774Z,97187.20
2023-12-08T04:40:04.912Z,97181.00
2023-12-08T04:42:32.127Z,97182.40
2023-12-08T04:44:59.682Z,97185.60
2023-12-08T04:47:26.743Z,97184.20
2023-12-08T04:49:54.670Z,97178.60
2023-12-08T04:52:21.841Z,97173.40
2023-12-08T04:54:48.559Z,97170.80
2023-12-08T04:57:15.614Z,97165.80
2023-12-08T04:59:42.522Z,97161.00
2023-12-08T05:02:09.284Z,97164.80
2023-12-08T05:04:36.003Z,97164.40
2023-12-08T05:07:02.624Z,97164.60
2023-12-08T05:09:29.259Z,97167.20
2023-12-08T05:11:56.294Z,97168.80
2023-12-08T05:14:23.720Z,97171.40
2023-12-08T05:16:50.415Z,97166.60
2023-12-08T05:19:18.185Z,97159.40
2023-12-08T05:21:44.993Z,97157.00
2023-12-08T05:24:11.800Z,97160.40
2023-12-08T05:26:38.649Z,97156.00
2023-12-08T05:29:05.488Z,97159.80
2023-12-08T05:31:32.146Z,97160.00
2023-12-08T05:33:59.394Z,97155.40
2023-12-08T05:36:26.518Z,97148.40
2023-12-08T05:38:53.274Z,97155.80
2023-12-08T05:41:19.947Z,97153.00
2023-12-08T05:43:47.609Z,97148.60
2023-12-08T05:46:15.077Z,97135.00
2023-12-08T05:48:41.846Z,97136.60
2023-12-08T05:51:08.782Z,97148.00
2023-12-08T05:53:35.910Z,97147.00
2023-12-08T05:56:04.356Z,97145.20
2023-12-08T05:58:31.073Z,97139.40
2023-12-08T06:00:57.824Z,97137.80
2023-12-08T06:03:24.502Z,97133.80
2023-12-08T06:05:51.231Z,97149.20
2023-12-08T06:08:17.972Z,97146.40
2023-12-08T06:10:44.621Z,97141.80
2023-12-08T06:13:11.253Z,97138.00
2023-12-08T06:15:38.150Z,97140.40
2023-12-08T06:18:04.953Z,97137.40
2023-12-08T06:20:31.684Z,97140.40
2023-12-08T06:22:58.426Z,97140.60
2023-12-08T06:25:25.125Z,97146.80
2023-12-08T06:27:51.815Z,97155.20
2023-12-08T06:30:20.650Z,97148.80
2023-12-08T06:32:47.462Z,97141.20
2023-12-08T06:35:14.348Z,97155.00
2023-12-08T06:37:40.968Z,97146.00
2023-12-08T06:40:08.937Z,97143.80
2023-12-08T06:42:35.588Z,97144.40
2023-12-08T06:45:03.808Z,97143.40
2023-12-08T06:47:30.549Z,97142.00
2023-12-08T06:49:57.401Z,97141.60
2023-12-08T06:52:24.076Z,97142.80
2023-12-08T06:54:50.905Z,97144.20
2023-12-08T06:57:17.606Z,97133.80
2023-12-08T06:59:44.599Z,97127.80
2023-12-08T07:02:11.371Z,97125.40
2023-12-08T07:04:38.314Z,97120.20
2023-12-08T07:07:05.085Z,97123.40
2023-12-08T07:09:31.777Z,97122.80
2023-12-08T07:11:59.003Z,97120.40
2023-12-08T07:14:25.857Z,97114.00
2023-12-08T07:16:52.795Z,97115.80
2023-12-08T07:19:20.114Z,97108.80
2023-12-08T07:21:48.198Z,97121.60
2023-12-08T07:24:15.489Z,97121.40
2023-12-08T07:26:42.277Z,97114.60
2023-12-08T07:29:08.959Z,97113.80
2023-12-08T07:31:35.730Z,97117.00
2023-12-08T07:34:03.255Z,97113.00
2023-12-08T07:36:30.216Z,97114.00
2023-12-08T07:38:57.375Z,97111.40
2023-12-08T07:41:24.145Z,97113.20
2023-12-08T07:43:53.589Z,97101.60
2023-12-08T07:46:20.241Z,97095.60
2023-12-08T07:48:46.990Z,97085.40
2023-12-08T07:51:13.884Z,97080.40
2023-12-08T07:53:40.694Z,97080.60
2023-12-08T07:56:07.629Z,97075.20
2023-12-08T07:58:34.414Z,97080.60
2023-12-08T08:01:01.244Z,97076.80
2023-12-08T08:03:29.045Z,97079.40
2023-12-08T08:05:56.216Z,97081.40
2023-12-08T08:08:22.995Z,97078.20
2023-12-08T08:10:49.741Z,97078.80
2023-12-08T08:13:16.785Z,97078.40
2023-12-08T08:15:43.493Z,97075.00
2023-12-08T08:18:10.204Z,97079.20
2023-12-08T08:20:37.914Z,97083.60
2023-12-08T08:23:04.667Z,97097.20
2023-12-08T08:25:32.745Z,97107.20
2023-12-08T08:28:01.391Z,97118.80
2023-12-08T08:30:28.365Z,97112.00
2023-12-08T08:32:54.987Z,97107.20
2023-12-08T08:35:21.712Z,97105.00
2023-12-08T08:37:48.425Z,97099.00
2023-12-08T08:40:16.277Z,97092.00
2023-12-08T08:42:42.951Z,97091.20
2023-12-08T08:45:10.086Z,97084.00
2023-12-08T08:47:36.864Z,97070.00
2023-12-08T08:50:03.889Z,97076.60
2023-12-08T08:52:31.389Z,97072.20
2023-12-08T08:54:58.320Z,97075.20
2023-12-08T08:57:25.042Z,97079.40
2023-12-08T08:59:52.049Z,97085.20
2023-12-08T09:02:18.826Z,97097.60
2023-12-08T09:04:45.586Z,97102.80
2023-12-08T09:07:12.477Z,97106.80
2023-12-08T09:09:42.836Z,97106.60
2023-12-08T09:12:11.306Z,97109.00
2023-12-08T09:14:39.576Z,97107.60
2023-12-08T09:17:07.000Z,97100.20
2023-12-08T09:19:33.933Z,97107.20
2023-12-08T09:22:00.676Z,97112.60
2023-12-08T09:24:27.636Z,97104.40
2023-12-08T09:26:54.469Z,97104.00
2023-12-08T09:29:22.248Z,97111.60
2023-12-08T09:31:49.325Z,97106.80
2023-12-08T09:34:17.833Z,97098.80
2023-12-08T09:37:24.371Z,97099.00
2023-12-08T09:39:34.172Z,97096.60
2023-12-08T09:42:08.335Z,97093.20
2023-12-08T09:44:35.876Z,97097.80
2023-12-08T09:47:09.795Z,97080.80
2023-12-08T09:49:42.300Z,97079.20
2023-12-08T09:52:10.531Z,97074.00
2023-12-08T09:54:37.207Z,97080.40
2023-12-08T09:57:06.347Z,97069.20
2023-12-08T09:59:33.185Z,97073.20
2023-12-08T10:01:59.883Z,97068.60
2023-12-08T10:04:27.598Z,97066.00
2023-12-08T10:06:57.617Z,97068.00
2023-12-08T10:09:24.321Z,97072.00
2023-12-08T10:11:51.713Z,97071.20
2023-12-08T10:14:19.883Z,97075.20
2023-12-08T10:16:48.224Z,97084.20
2023-12-08T10:19:15.511Z,97083.20
2023-12-08T10:21:42.476Z,97086.20
2023-12-08T10:24:10.715Z,97090.40
2023-12-08T10:26:37.408Z,97097.00
2023-12-08T10:29:05.299Z,97102.20
2023-12-08T10:31:33.071Z,97101.00
2023-12-08T10:34:00.037Z,97102.40
2023-12-08T10:36:26.885Z,97103.00
2023-12-08T10:38:53.804Z,97100.20
2023-12-08T10:41:20.575Z,97106.40
2023-12-08T10:43:47.356Z,97111.40
2023-12-08T10:46:14.172Z,97109.40
2023-12-08T10:48:41.559Z,97111.80
2023-12-08T10:51:14.700Z,97112.60
2023-12-08T10:53:41.973Z,97118.40
2023-12-08T10:56:13.213Z,97121.80
2023-12-08T10:58:43.537Z,97130.00
2023-12-08T11:01:15.696Z,97127.20
2023-12-08T11:03:51.934Z,97129.20
2023-12-08T11:06:30.089Z,97125.60
2023-12-08T11:08:59.086Z,97122.40
2023-12-08T11:11:27.797Z,97121.00
2023-12-08T11:14:10.807Z,97115.20
2023-12-08T11:16:49.658Z,97107.20
2023-12-08T11:19:21.118Z,97106.40
2023-12-08T11:21:48.535Z,97094.60
2023-12-08T11:24:16.096Z,97100.60
2023-12-08T11:26:57.227Z,97103.40
2023-12-08T11:29:32.970Z,97110.60
2023-12-08T11:32:11.111Z,97111.80
2023-12-08T11:34:47.259Z,97116.20
2023-12-08T11:37:13.986Z,97116.20
2023-12-08T11:39:45.782Z,97114.40
2023-12-08T11:42:15.074Z,97124.20
2023-12-08T11:44:47.433Z,97128.60
2023-12-08T11:47:17.186Z,97126.60
2023-12-08T11:49:45.724Z,97127.60
2023-12-08T11:52:27.022Z,97120.60
2023-12-08T11:55:22.145Z,97121.80
2023-12-08T11:58:04.397Z,97124.00
2023-12-08T12:00:36.022Z,97121.40
2023-12-08T12:03:04.464Z,97126.00
2023-12-08T12:05:32.604Z,97122.00
2023-12-08T12:08:00.152Z,97120.00
2023-12-08T12:10:34.290Z,97128.40
2023-12-08T12:13:06.375Z,97124.00
2023-12-08T12:15:37.301Z,97126.20
2023-12-08T12:18:04.991Z,97122.20
2023-12-08T12:20:37.497Z,97121.20
2023-12-08T12:23:04.205Z,97123.80
2023-12-08T12:25:31.007Z,97120.20
2023-12-08T12:27:59.000Z,97117.20
2023-12-08T12:30:26.033Z,97118.20
2023-12-08T12:32:53.180Z,97111.40
2023-12-08T12:35:20.099Z,97116.00
2023-12-08T12:37:47.593Z,97120.80
2023-12-08T12:40:14.388Z,97118.60
2023-12-08T12:42:43.135Z,97120.20
2023-12-08T12:45:11.192Z,97124.40
2023-12-08T12:47:38.800Z,97124.20
2023-12-08T12:50:08.726Z,97124.00
2023-12-08T12:52:38.043Z,97123.00
2023-12-08T12:55:23.796Z,97120.00
2023-12-08T12:57:51.015Z,97115.40
2023-12-08T13:00:39.201Z,97128.20
2023-12-08T13:03:11.303Z,97128.20
2023-12-08T13:05:49.700Z,97122.20
2023-12-08T13:08:18.246Z,97121.40
2023-12-08T13:10:46.264Z,97121.60
2023-12-08T13:13:15.710Z,97121.40
2023-12-08T13:15:43.499Z,97126.20
2023-12-08T13:18:10.878Z,97122.80
2023-12-08T13:20:41.464Z,97125.60
2023-12-08T13:23:08.812Z,97124.60
2023-12-08T13:25:35.596Z,97125.80
2023-12-08T13:28:02.335Z,97126.00
2023-12-08T13:30:29.248Z,97122.80
2023-12-08T13:32:56.753Z,97120.00
2023-12-08T13:35:23.876Z,97124.40
2023-12-08T13:37:50.870Z,97122.40
2023-12-08T13:40:17.933Z,97127.60
2023-12-08T13:42:44.747Z,97131.20
2023-12-08T13:45:12.466Z,97132.60
2023-12-08T13:47:39.901Z,97134.60
2023-12-08T13:50:06.743Z,97135.40
2023-12-08T13:52:33.468Z,97138.60
2023-12-08T13:55:02.808Z,97140.40
2023-12-08T13:57:29.694Z,97142.00
2023-12-08T13:59:56.661Z,97147.40
2023-12-08T14:02:23.268Z,97144.40
2023-12-08T14:04:50.154Z,97145.00
2023-12-08T14:07:17.354Z,97143.00
2023-12-08T14:09:45.167Z,97149.60
2023-12-08T14:12:11.915Z,97152.20
2023-12-08T14:14:38.706Z,97156.20
2023-12-08T14:17:05.732Z,97160.40
2023-12-08T14:19:32.947Z,97163.00
2023-12-08T14:22:00.051Z,97164.20
2023-12-08T14:24:27.350Z,97162.40
2023-12-08T14:26:54.755Z,97167.20
2023-12-08T14:29:23.158Z,97173.20
2023-12-08T14:31:51.104Z,97173.00
2023-12-08T14:34:18.259Z,97175.20
2023-12-08T14:36:47.533Z,97178.00
2023-12-08T14:39:14.681Z,97183.80
2023-12-08T14:41:42.469Z,97182.60
2023-12-08T14:44:09.457Z,97179.80
2023-12-08T14:46:36.652Z,97183.80
2023-12-08T14:49:05.758Z,97185.00
2023-12-08T14:51:32.773Z,97187.20
2023-12-08T14:53:59.537Z,97188.40
2023-12-08T14:56:27.276Z,97194.60
2023-12-08T14:58:54.970Z,97195.80
2023-12-08T15:01:22.377Z,97199.40
2023-12-08T15:03:51.365Z,97202.80
2023-12-08T15:06:19.341Z,97198.40
2023-12-08T15:08:47.118Z,97210.20
2023-12-08T15:11:13.857Z,97214.60
2023-12-08T15:13:40.529Z,97221.00
2023-12-08T15:16:07.933Z,97225.00
2023-12-08T15:18:35.170Z,97226.20
2023-12-08T15:21:27.805Z,97225.20
2023-12-08T15:23:58.281Z,97232.00
2023-12-08T15:26:26.175Z,97228.60
2023-12-08T15:28:52.965Z,97227.80
2023-12-08T15:31:20.071Z,97221.60
2023-12-08T15:33:47.198Z,97231.00
2023-12-08T15:36:14.613Z,97232.60
2023-12-08T15:38:44.825Z,97242.20
2023-12-08T15:41:14.241Z,97237.20
2023-12-08T15:43:41.266Z,97237.60
2023-12-08T15:46:08.283Z,97239.80
2023-12-08T15:48:35.554Z,97238.40
2023-12-08T15:51:02.477Z,97240.00
2023-12-08T15:53:30.135Z,97246.60
2023-12-08T15:56:00.339Z,97245.40
2023-12-08T15:58:27.021Z,97253.20
2023-12-08T16:00:54.770Z,97251.40
2023-12-08T16:03:21.537Z,97243.80
2023-12-08T16:05:48.458Z,97246.80
2023-12-08T16:08:15.212Z,97246.00
2023-12-08T16:10:41.893Z,97243.40
2023-12-08T16:13:08.751Z,97248.20
2023-12-08T16:15:37.025Z,97251.00
2023-12-08T16:18:03.978Z,97254.00
2023-12-08T16:20:30.949Z,97254.60
2023-12-08T16:22:57.865Z,97259.00
2023-12-08T16:25:24.535Z,97262.20
2023-12-08T16:27:52.219Z,97261.40
2023-12-08T16:30:18.957Z,97261.80
2023-12-08T16:32:45.875Z,97267.20
2023-12-08T16:35:14.457Z,97271.20
2023-12-08T16:37:41.199Z,97271.20
2023-12-08T16:40:08.653Z,97273.80
2023-12-08T16:42:35.579Z,97277.60
2023-12-08T16:45:03.308Z,97278.60
2023-12-08T16:47:30.290Z,97284.20
2023-12-08T16:49:57.030Z,97289.00
2023-12-08T16:52:24.051Z,97288.40
2023-12-08T16:54:51.863Z,97289.00
2023-12-08T16:57:18.552Z,97288.20
2023-12-08T16:59:47.203Z,97293.40
2023-12-08T17:02:13.858Z,97296.40
2023-12-08T17:04:40.506Z,97301.40
2023-12-08T17:07:07.266Z,97296.00
2023-12-08T17:09:34.087Z,97301.20
2023-12-08T17:12:00.823Z,97302.40
2023-12-08T17:14:27.686Z,97303.60
2023-12-08T17:16:54.383Z,97304.80
2023-12-08T17:19:21.083Z,97309.00
2023-12-08T17:21:48.233Z,97310.80
2023-12-08T17:24:14.986Z,97318.00
2023-12-08T17:26:42.890Z,97309.20
2023-12-08T17:29:10.453Z,97313.20
2023-12-08T17:31:38.874Z,97308.60
2023-12-08T17:34:12.788Z,97310.80
2023-12-08T17:36:46.013Z,97307.00
2023-12-08T17:39:12.889Z,97305.80
2023-12-08T17:41:42.015Z,97310.00
2023-12-08T17:44:10.095Z,97319.80
2023-12-08T17:46:40.437Z,97320.80
2023-12-08T17:49:07.320Z,97326.40
2023-12-08T17:51:34.199Z,97326.40
2023-12-08T17:54:00.916Z,97326.60
2023-12-08T17:56:27.585Z,97327.60
2023-12-08T17:58:54.281Z,97333.60
2023-12-08T18:01:21.024Z,97329.80
2023-12-08T18:03:48.890Z,97336.40
2023-12-08T18:06:21.817Z,97343.40
2023-12-08T18:11:26.184Z,97343.20
2023-12-08T18:13:55.787Z,97341.20
2023-12-08T18:16:22.720Z,97335.00
2023-12-08T18:18:50.410Z,97341.00
2023-12-08T18:21:31.329Z,97343.40
2023-12-08T18:23:59.285Z,97353.80
2023-12-08T18:26:30.192Z,97353.80
2023-12-08T18:29:08.047Z,97352.00
2023-12-08T18:31:39.325Z,97352.60
2023-12-08T18:34:06.763Z,97350.80
2023-12-08T18:36:36.884Z,97353.40
2023-12-08T18:39:04.853Z,97346.40
2023-12-08T18:41:32.402Z,97358.40
2023-12-08T18:44:00.138Z,97354.80
2023-12-08T18:46:27.189Z,97357.60
2023-12-08T18:48:58.682Z,97368.60
2023-12-08T18:51:26.467Z,97366.40
2023-12-08T18:53:55.994Z,97368.60
2023-12-08T18:56:23.132Z,97368.60
2023-12-08T18:58:51.674Z,97373.00
2023-12-08T19:01:18.528Z,97375.20
2023-12-08T19:03:45.232Z,97372.80
2023-12-08T19:06:12.648Z,97371.20
2023-12-08T19:08:39.948Z,97373.80
2023-12-08T19:11:06.698Z,97375.80
2023-12-08T19:13:33.625Z,97380.00
2023-12-08T19:16:00.292Z,97390.00
2023-12-08T19:18:27.053Z,97388.80
2023-12-08T19:20:53.920Z,97393.60
2023-12-08T19:23:23.623Z,97390.80
2023-12-08T19:25:53.209Z,97396.00
2023-12-08T19:28:20.882Z,97400.00
2023-12-08T19:30:49.289Z,97399.40
2023-12-08T19:33:16.534Z,97407.60
2023-12-08T19:35:44.094Z,97405.60
2023-12-08T19:38:11.894Z,97405.40
2023-12-08T19:40:38.693Z,97397.40
2023-12-08T19:43:05.353Z,97402.40
2023-12-08T19:45:32.001Z,97402.60
2023-12-08T19:47:58.808Z,97408.40
2023-12-08T19:50:26.614Z,97406.40
2023-12-08T19:52:53.288Z,97404.80
2023-12-08T19:55:20.052Z,97405.40
2023-12-08T19:57:46.757Z,97408.00
2023-12-08T20:00:15.216Z,97412.40
2023-12-08T20:02:42.401Z,97425.00
2023-12-08T20:05:09.790Z,97422.20
2023-12-08T20:07:36.529Z,97416.40
2023-12-08T20:10:03.459Z,97411.00
2023-12-08T20:12:30.683Z,97423.00
2023-12-08T20:14:57.342Z,97423.40
2023-12-08T20:17:25.124Z,97428.40
2023-12-08T20:19:52.483Z,97425.00
2023-12-08T20:22:22.304Z,97424.40
2023-12-08T20:24:50.017Z,97423.00
2023-12-08T20:27:16.816Z,97423.60
2023-12-08T20:29:43.527Z,97424.40
2023-12-08T20:32:10.317Z,97426.40
2023-12-08T20:34:38.396Z,97423.80
2023-12-08T20:37:06.269Z,97428.20
2023-12-08T20:39:32.951Z,97425.80
2023-12-08T20:41:59.673Z,97431.60
2023-12-08T20:44:27.861Z,97434.40
2023-12-08T20:46:56.653Z,97436.40
2023-12-08T20:49:24.547Z,97435.40
2023-12-08T20:51:51.413Z,97437.60
2023-12-08T20:54:18.309Z,97435.80
2023-12-08T20:56:46.235Z,97437.20
2023-12-08T20:59:13.051Z,97439.20
2023-12-08T21:01:40.821Z,97438.00
2023-12-08T21:04:07.646Z,97432.40
2023-12-08T21:06:34.957Z,97434.80
2023-12-08T21:09:02.821Z,97433.80
2023-12-08T21:11:31.284Z,97432.60
2023-12-08T21:13:59.689Z,97432.40
2023-12-08T21:16:27.316Z,97437.20
2023-12-08T21:18:55.129Z,97441.20
2023-12-08T21:21:22.516Z,97438.60
2023-12-08T21:23:49.484Z,97436.80
2023-12-08T21:26:16.253Z,97436.00
2023-12-08T21:28:43.326Z,97434.40
2023-12-08T21:31:10.109Z,97438.60
2023-12-08T21:33:36.896Z,97435.80
2023-12-08T21:36:04.416Z,97440.40
2023-12-08T21:38:31.206Z,97436.40
2023-12-08T21:40:57.961Z,97439.80
2023-12-08T21:43:24.669Z,97441.60
2023-12-08T21:45:51.459Z,97449.60
2023-12-08T21:48:18.235Z,97449.20
2023-12-08T21:50:45.006Z,97452.40
2023-12-08T21:53:11.702Z,97460.40
2023-12-08T21:55:38.384Z,97461.60
2023-12-08T21:58:05.056Z,97457.20
2023-12-08T22:00:31.777Z,97455.60
2023-12-08T22:02:59.061Z,97460.60
2023-12-08T22:05:25.873Z,97459.60
2023-12-08T22:07:52.710Z,97457.20
2023-12-08T22:10:19.381Z,97458.80
2023-12-08T22:12:46.282Z,97464.60
2023-12-08T22:15:12.929Z,97467.40
2023-12-08T22:17:39.705Z,97467.20
2023-12-08T22:20:07.248Z,97469.20
2023-12-08T22:22:33.918Z,97464.00
2023-12-08T22:25:11.489Z,97465.20
2023-12-08T22:27:38.439Z,97460.80
2023-12-08T22:30:06.719Z,97461.20
2023-12-08T22:32:34.680Z,97463.60
2023-12-08T22:35:02.565Z,97467.00
2023-12-08T22:37:29.708Z,97465.60
2023-12-08T22:39:56.520Z,97466.80
2023-12-08T22:42:23.665Z,97465.20
2023-12-08T22:44:50.447Z,97465.00
2023-12-08T22:47:17.137Z,97468.20
2023-12-08T22:49:44.882Z,97468.00
2023-12-08T22:52:13.304Z,97466.20
2023-12-08T22:54:40.053Z,97471.80
2023-12-08T22:57:06.810Z,97469.80
2023-12-08T22:59:33.502Z,97467.60
2023-12-08T23:02:00.256Z,97470.40
2023-12-08T23:04:27.057Z,97471.00
2023-12-08T23:06:54.766Z,97469.00
2023-12-08T23:09:21.418Z,97473.00
2023-12-08T23:11:48.159Z,97475.20
2023-12-08T23:14:14.983Z,97473.80
2023-12-08T23:16:41.589Z,97468.20
2023-12-08T23:19:08.362Z,97470.40
2023-12-08T23:21:35.070Z,97468.80
2023-12-08T23:24:01.716Z,97471.40
2023-12-08T23:26:28.398Z,97474.60
2023-12-08T23:28:55.168Z,97470.80
2023-12-08T23:31:21.969Z,97470.80
2023-12-08T23:33:49.009Z,97473.20
2023-12-08T23:36:15.885Z,97476.80
2023-12-08T23:38:42.576Z,97471.60
2023-12-08T23:41:09.252Z,97463.80
2023-12-08T23:43:35.832Z,97481.60
2023-12-08T23:46:02.475Z,97485.60
2023-12-08T23:48:29.250Z,97478.60
2023-12-08T23:50:57.092Z,97475.80
2023-12-08T23:53:23.726Z,97475.20
2023-12-08T23:55:50.378Z,97479.80
2023-12-08T23:58:17.150Z,97483.00
